createdAt,value
2023-05-11T00:00:36.209Z,1.02
2023-05-11T00:03:02.618Z,1.00
2023-05-11T00:05:29.054Z,0.88
2023-05-11T00:07:55.408Z,0.82
2023-05-11T00:10:21.786Z,0.98
2023-05-11T00:12:48.142Z,1.00
2023-05-11T00:15:14.544Z,1.10
2023-05-11T00:17:40.946Z,1.30
2023-05-11T00:20:07.945Z,0.90
2023-05-11T00:22:34.361Z,0.90
2023-05-11T00:25:00.804Z,1.10
2023-05-11T00:27:27.493Z,1.05
2023-05-11T00:29:53.848Z,1.05
2023-05-11T00:32:20.696Z,1.13
2023-05-11T00:34:47.481Z,1.10
2023-05-11T00:37:13.865Z,0.80
2023-05-11T00:39:40.816Z,0.90
2023-05-11T00:42:07.525Z,1.00
2023-05-11T00:44:33.951Z,0.80
2023-05-11T00:47:00.585Z,1.15
2023-05-11T00:49:27.731Z,0.73
2023-05-11T00:51:54.849Z,0.98
2023-05-11T00:54:21.568Z,0.95
2023-05-11T00:56:48.425Z,0.70
2023-05-11T00:59:14.953Z,0.80
2023-05-11T01:01:41.660Z,0.80
2023-05-11T01:04:08.562Z,0.95
2023-05-11T01:07:15.373Z,1.02
2023-05-11T01:10:10.069Z,0.90
2023-05-11T01:12:48.153Z,0.68
2023-05-11T01:15:25.973Z,0.85
2023-05-11T01:18:08.493Z,1.25
2023-05-11T01:20:35.547Z,1.02
2023-05-11T01:23:07.940Z,1.00
2023-05-11T01:26:10.131Z,0.98
2023-05-11T01:29:07.655Z,1.00
2023-05-11T01:31:36.336Z,1.20
2023-05-11T01:34:07.425Z,0.88
2023-05-11T01:36:42.704Z,1.25
2023-05-11T01:39:12.692Z,0.90
2023-05-11T01:41:41.717Z,1.00
2023-05-11T01:44:11.746Z,1.00
2023-05-11T01:46:39.840Z,0.82
2023-05-11T01:49:08.196Z,0.90
2023-05-11T01:51:37.357Z,0.82
2023-05-11T01:54:07.255Z,0.80
2023-05-11T01:56:38.375Z,0.93
2023-05-11T01:59:05.564Z,1.00
2023-05-11T02:01:35.579Z,0.80
2023-05-11T02:04:04.813Z,0.77
2023-05-11T02:06:32.795Z,0.80
2023-05-11T02:09:01.186Z,1.00
2023-05-11T02:11:29.398Z,1.02
2023-05-11T02:13:58.651Z,0.73
2023-05-11T02:16:28.175Z,0.88
2023-05-11T02:18:56.046Z,0.73
2023-05-11T02:21:22.845Z,0.95
2023-05-11T02:23:51.276Z,0.80
2023-05-11T02:26:17.779Z,1.10
2023-05-11T02:28:44.248Z,1.05
2023-05-11T02:31:20.874Z,1.00
2023-05-11T02:33:52.296Z,0.90
2023-05-11T02:36:22.185Z,0.80
2023-05-11T02:38:54.840Z,0.80
2023-05-11T02:41:27.781Z,0.70
2023-05-11T02:43:58.508Z,0.68
2023-05-11T02:46:29.476Z,0.70
2023-05-11T02:49:00.866Z,0.70
2023-05-11T02:51:37.548Z,0.95
2023-05-11T02:54:07.022Z,0.80
2023-05-11T02:56:37.886Z,1.00
2023-05-11T02:59:04.332Z,0.70
2023-05-11T03:01:31.122Z,0.88
2023-05-11T03:03:58.150Z,0.80
2023-05-11T03:06:26.647Z,0.88
2023-05-11T03:08:53.142Z,0.70
2023-05-11T03:11:21.169Z,0.80
2023-05-11T03:13:48.266Z,0.90
2023-05-11T03:16:17.919Z,1.02
2023-05-11T03:18:47.352Z,1.05
2023-05-11T03:21:17.794Z,0.77
2023-05-11T03:23:45.897Z,0.70
2023-05-11T03:26:13.275Z,0.60
2023-05-11T03:28:41.753Z,0.70
2023-05-11T03:31:08.330Z,0.82
2023-05-11T03:33:35.138Z,0.80
2023-05-11T03:36:03.333Z,0.70
2023-05-11T03:38:32.193Z,0.88
2023-05-11T03:41:00.634Z,0.80
2023-05-11T03:43:31.735Z,0.70
2023-05-11T03:45:59.273Z,0.88
2023-05-11T03:48:26.574Z,0.70
2023-05-11T03:50:53.299Z,0.90
2023-05-11T03:53:20.026Z,0.80
2023-05-11T03:55:46.441Z,0.93
2023-05-11T03:58:12.843Z,0.90
2023-05-11T04:00:40.438Z,0.80
2023-05-11T04:03:08.536Z,0.70
2023-05-11T04:05:35.724Z,0.60
2023-05-11T04:08:05.528Z,0.75
2023-05-11T04:10:31.995Z,0.65
2023-05-11T04:12:58.489Z,0.73
2023-05-11T04:15:24.851Z,0.93
2023-05-11T04:17:51.233Z,1.20
2023-05-11T04:20:17.969Z,3.17
2023-05-11T04:22:44.656Z,2.65
2023-05-11T04:25:11.502Z,2.35
2023-05-11T04:27:37.885Z,2.42
2023-05-11T04:30:06.406Z,2.55
2023-05-11T04:32:32.943Z,2.00
2023-05-11T04:34:59.350Z,4.43
2023-05-11T04:37:28.200Z,5.47
2023-05-11T04:39:54.766Z,5.70
2023-05-11T04:42:21.127Z,4.88
2023-05-11T04:44:54.141Z,4.57
2023-05-11T04:47:20.740Z,3.90
2023-05-11T04:49:48.090Z,3.90
2023-05-11T04:52:14.456Z,3.75
2023-05-11T04:54:43.874Z,3.17
2023-05-11T04:57:10.233Z,3.40
2023-05-11T04:59:36.874Z,3.00
2023-05-11T05:02:03.288Z,2.90
2023-05-11T05:04:29.643Z,2.50
2023-05-11T05:06:55.992Z,3.22
2023-05-11T05:09:22.390Z,2.45
2023-05-11T05:11:48.767Z,2.50
2023-05-11T05:14:15.127Z,2.53
2023-05-11T05:16:41.516Z,2.67
2023-05-11T05:19:09.722Z,2.35
2023-05-11T05:21:36.218Z,2.70
2023-05-11T05:24:06.815Z,2.05
2023-05-11T05:26:33.306Z,2.50
2023-05-11T05:28:59.967Z,2.50
2023-05-11T05:31:27.515Z,2.40
2023-05-11T05:33:54.378Z,2.10
2023-05-11T05:36:20.717Z,2.05
2023-05-11T05:38:47.760Z,2.25
2023-05-11T05:41:14.226Z,2.08
2023-05-11T05:43:43.004Z,2.17
2023-05-11T05:46:09.659Z,2.08
2023-05-11T05:48:36.234Z,2.20
2023-05-11T05:51:02.788Z,1.90
2023-05-11T05:53:29.209Z,2.03
2023-05-11T05:55:55.671Z,1.98
2023-05-11T05:58:22.062Z,2.15
2023-05-11T06:00:49.122Z,1.70
2023-05-11T06:03:15.807Z,2.13
2023-05-11T06:05:42.365Z,1.80
2023-05-11T06:08:11.056Z,1.95
2023-05-11T06:10:38.804Z,2.22
2023-05-11T06:13:05.935Z,1.88
2023-05-11T06:15:32.602Z,1.90
2023-05-11T06:18:06.928Z,1.63
2023-05-11T06:20:33.815Z,2.00
2023-05-11T06:23:02.663Z,1.90
2023-05-11T06:25:29.367Z,1.80
2023-05-11T06:27:55.800Z,1.85
2023-05-11T06:30:22.389Z,2.25
2023-05-11T06:32:51.704Z,1.70
2023-05-11T06:35:21.537Z,1.50
2023-05-11T06:37:49.104Z,1.63
2023-05-11T06:40:16.656Z,1.80
2023-05-11T06:42:44.723Z,1.77
2023-05-11T06:45:11.563Z,1.80
2023-05-11T06:47:41.564Z,1.73
2023-05-11T06:50:08.624Z,1.40
2023-05-11T06:52:37.314Z,1.80
2023-05-11T06:55:04.449Z,1.70
2023-05-11T06:57:30.824Z,1.83
2023-05-11T06:59:57.546Z,1.60
2023-05-11T07:02:24.241Z,1.60
2023-05-11T07:04:50.863Z,1.70
2023-05-11T07:07:17.294Z,1.67
2023-05-11T07:09:43.696Z,1.65
2023-05-11T07:12:10.154Z,1.67
2023-05-11T07:14:36.612Z,1.65
2023-05-11T07:17:03.120Z,1.80
2023-05-11T07:19:29.593Z,1.88
2023-05-11T07:21:56.136Z,1.63
2023-05-11T07:24:22.583Z,1.83
2023-05-11T07:26:50.678Z,1.60
2023-05-11T07:29:17.083Z,1.33
2023-05-11T07:31:43.978Z,1.52
2023-05-11T07:34:10.412Z,1.55
2023-05-11T07:36:38.777Z,1.48
2023-05-11T07:39:05.376Z,1.85
2023-05-11T07:41:31.949Z,1.80
2023-05-11T07:44:00.927Z,1.65
2023-05-11T07:46:27.520Z,1.73
2023-05-11T07:49:03.518Z,1.52
2023-05-11T07:51:40.675Z,1.50
2023-05-11T07:54:07.091Z,2.00
2023-05-11T07:56:33.455Z,1.70
2023-05-11T07:58:59.819Z,1.55
2023-05-11T08:01:26.808Z,1.58
2023-05-11T08:03:53.329Z,1.30
2023-05-11T08:06:19.829Z,1.40
2023-05-11T08:08:46.367Z,1.20
2023-05-11T08:11:12.704Z,1.40
2023-05-11T08:13:39.056Z,1.38
2023-05-11T08:16:06.529Z,1.42
2023-05-11T08:18:32.916Z,1.38
2023-05-11T08:20:59.365Z,1.77
2023-05-11T08:23:25.754Z,1.40
2023-05-11T08:25:56.046Z,1.50
2023-05-11T08:28:22.775Z,1.92
2023-05-11T08:30:55.557Z,1.60
2023-05-11T08:33:36.604Z,1.50
2023-05-11T08:36:05.948Z,1.50
2023-05-11T08:38:33.222Z,1.42
2023-05-11T08:41:01.676Z,1.40
2023-05-11T08:43:29.218Z,1.50
2023-05-11T08:46:00.600Z,1.42
2023-05-11T08:48:27.133Z,1.40
2023-05-11T08:50:53.565Z,1.30
2023-05-11T08:53:19.965Z,1.50
2023-05-11T08:55:49.485Z,1.27
2023-05-11T08:58:20.818Z,1.25
2023-05-11T09:00:49.183Z,1.45
2023-05-11T09:03:17.384Z,1.63
2023-05-11T09:05:46.340Z,1.55
2023-05-11T09:08:14.203Z,1.35
2023-05-11T09:10:41.460Z,1.20
2023-05-11T09:13:07.806Z,1.30
2023-05-11T09:15:37.403Z,1.40
2023-05-11T09:18:04.740Z,1.48
2023-05-11T09:20:34.494Z,1.33
2023-05-11T09:23:02.785Z,1.40
2023-05-11T09:25:32.938Z,1.30
2023-05-11T09:28:00.035Z,1.20
2023-05-11T09:30:26.677Z,1.30
2023-05-11T09:32:55.354Z,1.88
2023-05-11T09:35:26.702Z,1.40
2023-05-11T09:38:05.986Z,1.30
2023-05-11T09:40:50.374Z,1.50
2023-05-11T09:43:25.478Z,1.42
2023-05-11T09:45:56.937Z,1.25
2023-05-11T09:48:26.081Z,1.35
2023-05-11T09:50:59.408Z,1.20
2023-05-11T09:53:43.797Z,1.60
2023-05-11T09:56:11.097Z,1.30
2023-05-11T09:58:52.209Z,1.13
2023-05-11T10:01:28.967Z,1.30
2023-05-11T10:04:02.621Z,1.15
2023-05-11T10:06:50.920Z,1.50
2023-05-11T10:09:22.574Z,1.00
2023-05-11T10:11:50.961Z,1.17
2023-05-11T10:14:19.129Z,1.58
2023-05-11T10:16:47.208Z,1.38
2023-05-11T10:19:13.896Z,1.50
2023-05-11T10:21:41.433Z,1.10
2023-05-11T10:24:08.123Z,1.65
2023-05-11T10:26:35.031Z,1.52
2023-05-11T10:29:01.892Z,1.20
2023-05-11T10:31:29.657Z,1.08
2023-05-11T10:33:57.437Z,1.08
2023-05-11T10:36:24.912Z,1.52
2023-05-11T10:38:51.364Z,1.45
2023-05-11T10:41:29.677Z,1.58
2023-05-11T10:44:40.544Z,1.50
2023-05-11T10:47:25.531Z,1.30
2023-05-11T10:50:16.579Z,1.20
2023-05-11T10:53:05.016Z,1.25
2023-05-11T10:55:50.851Z,1.40
2023-05-11T10:58:38.436Z,1.27
2023-05-11T11:01:31.138Z,1.10
2023-05-11T11:04:05.178Z,1.02
2023-05-11T11:06:33.375Z,1.25
2023-05-11T11:09:05.236Z,1.27
2023-05-11T11:11:40.641Z,1.30
2023-05-11T11:14:09.474Z,0.90
2023-05-11T11:16:37.845Z,1.20
2023-05-11T11:19:29.577Z,1.45
2023-05-11T11:22:00.606Z,1.05
2023-05-11T11:24:38.983Z,1.02
2023-05-11T11:27:06.517Z,1.25
2023-05-11T11:29:35.053Z,1.40
2023-05-11T11:32:19.858Z,1.08
2023-05-11T11:34:47.043Z,1.02
2023-05-11T11:37:17.253Z,1.00
2023-05-11T11:39:43.556Z,1.00
2023-05-11T11:42:32.389Z,1.30
2023-05-11T11:45:28.256Z,0.90
2023-05-11T11:48:10.229Z,1.20
2023-05-11T11:50:36.798Z,1.15
2023-05-11T11:53:04.396Z,1.15
2023-05-11T11:55:49.866Z,1.00
2023-05-11T11:58:42.439Z,1.20
2023-05-11T12:01:10.063Z,0.85
2023-05-11T12:03:37.433Z,1.30
2023-05-11T12:06:06.204Z,1.05
2023-05-11T12:08:32.597Z,1.00
2023-05-11T12:11:00.174Z,1.30
2023-05-11T12:13:28.020Z,1.15
2023-05-11T12:16:13.867Z,0.95
2023-05-11T12:18:41.672Z,1.15
2023-05-11T12:21:20.645Z,1.02
2023-05-11T12:23:57.966Z,1.17
2023-05-11T12:26:26.245Z,1.20
2023-05-11T12:29:06.794Z,1.10
2023-05-11T12:31:41.281Z,1.15
2023-05-11T12:34:14.960Z,1.10
2023-05-11T12:36:42.027Z,1.30
2023-05-11T12:39:08.452Z,1.13
2023-05-11T12:41:34.807Z,1.08
2023-05-11T12:44:01.444Z,1.10
2023-05-11T12:46:27.887Z,1.00
2023-05-11T12:48:54.303Z,0.98
2023-05-11T12:51:46.630Z,0.90
2023-05-11T12:54:25.573Z,1.13
2023-05-11T12:56:51.949Z,1.10
2023-05-11T12:59:39.246Z,1.10
2023-05-11T13:02:13.443Z,0.98
2023-05-11T13:04:40.915Z,1.13
2023-05-11T13:07:07.709Z,1.08
2023-05-11T13:09:34.622Z,1.00
2023-05-11T13:12:08.159Z,1.20
2023-05-11T13:14:34.585Z,0.95
2023-05-11T13:17:00.944Z,1.10
2023-05-11T13:19:29.040Z,0.98
2023-05-11T13:21:56.207Z,1.27
2023-05-11T13:24:23.686Z,1.20
2023-05-11T13:26:51.174Z,1.30
2023-05-11T13:29:18.144Z,0.90
2023-05-11T13:31:52.700Z,1.10
2023-05-11T13:34:20.232Z,1.20
2023-05-11T13:36:47.391Z,1.00
2023-05-11T13:39:13.811Z,1.20
2023-05-11T13:41:40.280Z,1.00
2023-05-11T13:44:06.720Z,1.10
2023-05-11T13:46:33.107Z,1.20
2023-05-11T13:49:00.434Z,1.00
2023-05-11T13:51:27.487Z,1.05
2023-05-11T13:53:54.287Z,1.20
2023-05-11T13:56:21.299Z,0.90
2023-05-11T13:58:47.730Z,1.00
2023-05-11T14:01:14.193Z,1.10
2023-05-11T14:03:40.602Z,0.95
2023-05-11T14:06:07.447Z,1.00
2023-05-11T14:08:33.894Z,0.90
2023-05-11T14:11:00.505Z,0.95
2023-05-11T14:13:26.974Z,1.00
2023-05-11T14:15:53.406Z,1.10
2023-05-11T14:18:20.108Z,1.17
2023-05-11T14:20:46.613Z,1.00
2023-05-11T14:23:13.394Z,0.90
2023-05-11T14:25:40.227Z,1.02
2023-05-11T14:28:06.700Z,0.90
2023-05-11T14:30:33.235Z,1.00
2023-05-11T14:32:59.810Z,0.90
2023-05-11T14:35:26.190Z,0.90
2023-05-11T14:37:54.370Z,1.13
2023-05-11T14:40:21.081Z,1.00
2023-05-11T14:42:47.458Z,0.80
2023-05-11T14:45:14.041Z,1.20
2023-05-11T14:47:40.439Z,0.82
2023-05-11T14:50:07.523Z,1.00
2023-05-11T14:52:34.024Z,0.90
2023-05-11T14:55:00.496Z,1.08
2023-05-11T14:57:27.132Z,1.30
2023-05-11T15:00:00.172Z,0.98
2023-05-11T15:02:27.036Z,1.10
2023-05-11T15:04:53.629Z,1.40
2023-05-11T15:07:20.092Z,1.27
2023-05-11T15:09:46.815Z,1.30
2023-05-11T15:12:13.363Z,1.27
2023-05-11T15:14:39.766Z,1.27
2023-05-11T15:17:06.183Z,1.05
2023-05-11T15:19:32.603Z,1.10
2023-05-11T15:21:59.218Z,1.15
2023-05-11T15:24:25.645Z,1.00
2023-05-11T15:26:52.034Z,1.00
2023-05-11T15:29:19.026Z,1.10
2023-05-11T15:31:45.615Z,1.10
2023-05-11T15:34:12.036Z,1.08
2023-05-11T15:36:38.946Z,2.25
2023-05-11T15:39:05.442Z,1.38
2023-05-11T15:41:31.790Z,1.33
2023-05-11T15:43:58.317Z,1.45
2023-05-11T15:46:24.868Z,1.75
2023-05-11T15:48:51.726Z,1.13
2023-05-11T15:51:19.398Z,1.63
2023-05-11T15:53:45.737Z,2.17
2023-05-11T15:56:12.116Z,2.50
2023-05-11T15:58:38.467Z,2.08
2023-05-11T16:01:04.882Z,2.08
2023-05-11T16:03:31.394Z,2.22
2023-05-11T16:05:57.860Z,1.92
2023-05-11T16:08:24.315Z,1.90
2023-05-11T16:10:51.620Z,2.15
2023-05-11T16:13:18.238Z,2.03
2023-05-11T16:15:44.734Z,1.90
2023-05-11T16:18:11.310Z,2.08
2023-05-11T16:20:37.929Z,1.70
2023-05-11T16:23:04.498Z,1.75
2023-05-11T16:25:30.935Z,1.90
2023-05-11T16:27:57.363Z,1.70
2023-05-11T16:30:25.501Z,1.80
2023-05-11T16:32:53.841Z,1.65
2023-05-11T16:35:20.619Z,1.75
2023-05-11T16:37:47.799Z,1.70
2023-05-11T16:40:15.022Z,1.50
2023-05-11T16:42:41.484Z,1.45
2023-05-11T16:45:08.399Z,1.80
2023-05-11T16:47:35.657Z,2.20
2023-05-11T16:50:02.041Z,2.25
2023-05-11T16:52:28.404Z,2.50
2023-05-11T16:54:56.261Z,2.08
2023-05-11T16:57:25.108Z,1.90
2023-05-11T16:59:51.611Z,2.13
2023-05-11T17:02:19.585Z,1.70
2023-05-11T17:04:46.022Z,1.80
2023-05-11T17:07:14.667Z,1.67
2023-05-11T17:09:41.034Z,2.10
2023-05-11T17:12:09.775Z,1.70
2023-05-11T17:14:36.554Z,2.38
2023-05-11T17:17:04.182Z,2.55
2023-05-11T17:19:31.567Z,2.97
2023-05-11T17:21:58.547Z,2.15
2023-05-11T17:24:25.023Z,2.30
2023-05-11T17:26:51.436Z,2.58
2023-05-11T17:29:17.799Z,2.63
2023-05-11T17:31:46.311Z,2.22
2023-05-11T17:34:13.057Z,2.70
2023-05-11T17:36:39.500Z,2.22
2023-05-11T17:39:05.914Z,2.17
2023-05-11T17:41:32.464Z,2.15
2023-05-11T17:43:58.826Z,2.58
2023-05-11T17:46:25.381Z,3.17
2023-05-11T17:48:52.928Z,4.90
2023-05-11T17:51:20.241Z,4.90
2023-05-11T17:53:46.690Z,3.80
2023-05-11T17:56:13.559Z,5.00
2023-05-11T17:58:40.017Z,4.88
2023-05-11T18:01:08.795Z,3.72
2023-05-11T18:03:35.478Z,3.33
2023-05-11T18:06:02.096Z,2.97
2023-05-11T18:08:28.465Z,3.55
2023-05-11T18:10:54.930Z,3.60
2023-05-11T18:13:22.126Z,3.65
2023-05-11T18:15:48.979Z,4.50
2023-05-11T18:18:15.739Z,4.50
2023-05-11T18:20:45.409Z,7.75
2023-05-11T18:23:12.956Z,5.30
2023-05-11T18:25:39.755Z,5.38
2023-05-11T18:28:06.262Z,6.57
2023-05-11T18:30:34.163Z,12.13
2023-05-11T18:33:01.592Z,10.57
2023-05-11T18:35:28.106Z,17.20
2023-05-11T18:37:54.918Z,17.80
2023-05-11T18:40:21.681Z,17.60
2023-05-11T18:42:48.165Z,21.90
2023-05-11T18:45:14.620Z,24.92
2023-05-11T18:47:45.982Z,29.10
2023-05-11T18:50:12.689Z,30.50
2023-05-11T18:52:39.039Z,31.30
2023-05-11T18:55:05.878Z,28.85
2023-05-11T18:57:34.195Z,37.20
2023-05-11T19:00:00.847Z,36.08
2023-05-11T19:02:27.642Z,38.13
2023-05-11T19:04:54.188Z,35.20
2023-05-11T19:07:20.758Z,35.42
2023-05-11T19:09:47.325Z,33.05
2023-05-11T19:12:13.854Z,34.67
2023-05-11T19:14:40.418Z,33.35
2023-05-11T19:17:07.016Z,31.63
2023-05-11T19:19:34.103Z,31.67
2023-05-11T19:22:00.549Z,29.92
2023-05-11T19:24:26.904Z,30.52
2023-05-11T19:27:06.045Z,30.13
2023-05-11T19:29:34.851Z,30.60
2023-05-11T19:32:01.482Z,28.85
2023-05-11T19:34:28.033Z,29.95
2023-05-11T19:36:54.454Z,29.50
2023-05-11T19:39:20.902Z,28.70
2023-05-11T19:41:47.602Z,27.27
2023-05-11T19:44:13.961Z,27.25
2023-05-11T19:46:46.843Z,27.88
2023-05-11T19:49:14.842Z,27.38
2023-05-11T19:51:41.190Z,26.75
2023-05-11T19:54:07.688Z,24.42
2023-05-11T19:56:34.192Z,23.75
2023-05-11T19:59:02.395Z,24.15
2023-05-11T20:01:28.884Z,24.08
2023-05-11T20:03:56.020Z,24.05
2023-05-11T20:06:22.606Z,22.80
2023-05-11T20:08:49.089Z,22.92
2023-05-11T20:11:15.542Z,23.05
2023-05-11T20:13:43.831Z,23.05
2023-05-11T20:16:10.569Z,22.10
2023-05-11T20:18:37.236Z,21.52
2023-05-11T20:21:04.247Z,21.35
2023-05-11T20:23:30.663Z,21.27
2023-05-11T20:25:57.105Z,18.20
2023-05-11T20:28:26.976Z,14.48
2023-05-11T20:30:55.724Z,14.98
2023-05-11T20:35:53.185Z,16.60
2023-05-11T20:38:20.033Z,16.08
2023-05-11T20:40:46.447Z,16.00
2023-05-11T20:43:14.581Z,14.88
2023-05-11T20:45:41.570Z,15.82
2023-05-11T20:48:08.040Z,14.32
2023-05-11T20:50:34.511Z,15.95
2023-05-11T20:53:00.890Z,15.13
2023-05-11T20:55:27.272Z,14.30
2023-05-11T20:57:53.676Z,15.18
2023-05-11T21:00:20.593Z,15.57
2023-05-11T21:02:47.327Z,14.75
2023-05-11T21:05:13.933Z,15.23
2023-05-11T21:07:40.296Z,15.00
2023-05-11T21:10:07.003Z,14.88
2023-05-11T21:12:33.365Z,14.75
2023-05-11T21:14:59.756Z,13.98
2023-05-11T21:17:26.227Z,15.13
2023-05-11T21:19:52.651Z,14.98
2023-05-11T21:22:19.066Z,14.18
2023-05-11T21:24:45.413Z,14.63
2023-05-11T21:27:11.816Z,13.98
2023-05-11T21:29:38.232Z,13.82
2023-05-11T21:32:05.046Z,13.57
2023-05-11T21:34:31.422Z,13.23
2023-05-11T21:36:59.545Z,14.38
2023-05-11T21:39:25.922Z,14.02
2023-05-11T21:41:52.266Z,13.48
2023-05-11T21:44:18.666Z,13.50
2023-05-11T21:46:46.472Z,12.90
2023-05-11T21:49:13.508Z,12.85
2023-05-11T21:51:39.890Z,12.32
2023-05-11T21:54:06.605Z,12.45
2023-05-11T21:56:32.953Z,12.63
2023-05-11T21:58:59.296Z,11.75
2023-05-11T22:01:25.728Z,11.35
2023-05-11T22:03:52.277Z,10.63
2023-05-11T22:06:18.812Z,11.63
2023-05-11T22:08:45.248Z,10.93
2023-05-11T22:11:11.595Z,11.57
2023-05-11T22:13:37.934Z,11.02
2023-05-11T22:16:04.798Z,12.40
2023-05-11T22:18:31.166Z,11.88
2023-05-11T22:20:57.531Z,10.10
2023-05-11T22:23:23.897Z,11.35
2023-05-11T22:25:50.350Z,10.30
2023-05-11T22:28:16.738Z,11.90
2023-05-11T22:30:43.136Z,11.05
2023-05-11T22:33:09.477Z,12.57
2023-05-11T22:35:36.092Z,12.82
2023-05-11T22:38:02.502Z,11.77
2023-05-11T22:40:28.887Z,12.52
2023-05-11T22:42:55.282Z,11.57
2023-05-11T22:45:21.633Z,10.82
2023-05-11T22:47:48.367Z,12.07
2023-05-11T22:50:14.808Z,11.02
2023-05-11T22:52:41.166Z,11.25
2023-05-11T22:55:08.053Z,12.27
2023-05-11T22:57:34.427Z,11.27
2023-05-11T23:00:00.808Z,11.23
2023-05-11T23:02:29.501Z,10.38
2023-05-11T23:04:55.954Z,10.07
2023-05-11T23:07:22.325Z,11.45
2023-05-11T23:09:52.260Z,11.07
2023-05-11T23:12:18.936Z,10.73
2023-05-11T23:14:45.289Z,11.18
2023-05-11T23:17:12.143Z,11.38
2023-05-11T23:19:38.623Z,10.93
2023-05-11T23:22:05.072Z,11.00
2023-05-11T23:24:31.683Z,10.40
2023-05-11T23:26:58.468Z,12.00
2023-05-11T23:29:24.849Z,9.68
2023-05-11T23:31:51.456Z,10.23
2023-05-11T23:34:18.245Z,12.07
2023-05-11T23:36:44.665Z,10.63
2023-05-11T23:39:11.080Z,10.93
2023-05-11T23:41:37.562Z,10.48
2023-05-11T23:44:03.989Z,10.90
2023-05-11T23:46:30.380Z,10.63
2023-05-11T23:48:56.810Z,9.48
2023-05-11T23:51:23.192Z,9.77
2023-05-11T23:53:49.786Z,9.35
2023-05-11T23:56:16.326Z,9.60
2023-05-11T23:58:45.485Z,10.00
